TimeCDT,TemperatureF,Dew PointF,Humidity,Sea Level PressureIn,VisibilityMPH,Wind Direction,Wind SpeedMPH,Gust SpeedMPH,PrecipitationIn,Events,Conditions,WindDirDegrees,DateUTC
12:55 AM,54.0,34.0,47,29.83,10.0,SSW,20.7,27.6,N/A,,Clear,200,2012-10-09 05:55:00
1:55 AM,52.0,34.0,50,29.83,10.0,SSW,16.1,-,N/A,,Clear,200,2012-10-09 06:55:00
2:55 AM,51.1,34.0,52,29.82,10.0,SSW,15.0,-,N/A,,Clear,200,2012-10-09 07:55:00
3:55 AM,48.9,34.0,56,29.81,10.0,SSW,11.5,-,N/A,,Clear,200,2012-10-09 08:55:00
4:55 AM,48.0,34.0,58,29.82,10.0,SSW,6.9,-,N/A,,Clear,200,2012-10-09 09:55:00
5:55 AM,46.0,34.0,63,29.82,10.0,Calm,Calm,-,N/A,,Clear,0,2012-10-09 10:55:00
6:55 AM,43.0,34.0,71,29.83,10.0,Calm,Calm,-,N/A,,Clear,0,2012-10-09 11:55:00
7:55 AM,41.0,34.0,76,29.86,10.0,Calm,Calm,-,N/A,,Clear,0,2012-10-09 12:55:00
8:55 AM,46.9,36.0,66,29.87,10.0,Calm,Calm,-,N/A,,Clear,0,2012-10-09 13:55:00
9:55 AM,52.0,37.0,57,29.90,10.0,West,5.8,-,N/A,,Clear,280,2012-10-09 14:55:00
10:55 AM,55.0,37.0,51,29.93,10.0,NNW,15.0,-,N/A,,Clear,330,2012-10-09 15:55:00
11:55 AM,57.0,41.0,55,29.94,10.0,NNE,16.1,25.3,N/A,,Clear,20,2012-10-09 16:55:00
12:55 PM,59.0,41.0,51,29.94,10.0,NNE,23.0,29.9,N/A,,Scattered Clouds,20,2012-10-09 17:55:00
1:55 PM,57.9,39.0,49,29.97,10.0,North,16.1,27.6,N/A,,Overcast,10,2012-10-09 18:55:00
2:55 PM,59.0,36.0,42,29.99,10.0,North,18.4,27.6,N/A,,Clear,10,2012-10-09 19:55:00
3:55 PM,61.0,30.9,32,30.00,10.0,North,19.6,24.2,N/A,,Clear,10,2012-10-09 20:55:00
4:55 PM,59.0,26.1,28,30.03,10.0,North,15.0,21.9,N/A,,Partly Cloudy,360,2012-10-09 21:55:00
5:55 PM,57.0,19.9,24,30.04,10.0,North,15.0,-,N/A,,Clear,10,2012-10-09 22:55:00
6:55 PM,53.1,21.0,29,30.07,10.0,North,10.4,-,N/A,,Clear,10,2012-10-09 23:55:00
7:55 PM,50.0,21.9,33,30.10,10.0,NNW,4.6,-,N/A,,Clear,330,2012-10-10 00:55:00
8:55 PM,48.0,23.0,37,30.12,10.0,WNW,4.6,-,N/A,,Clear,300,2012-10-10 01:55:00
9:55 PM,43.0,23.0,45,30.15,10.0,West,5.8,-,N/A,,Clear,270,2012-10-10 02:55:00
10:55 PM,42.1,23.0,47,30.17,10.0,West,6.9,-,N/A,,Clear,280,2012-10-10 03:55:00
11:55 PM,39.9,24.1,53,30.18,10.0,NNW,8.1,-,N/A,,Clear,330,2012-10-10 04:55:00